Latest Weather Observations for Wilsons Promontory

IDV60801

Issued at 12:03 pm EST Monday 1 May 2017 (issued every 30 minutes, with the page automatically refreshed every 10 minutes)

About weather observations | Map of weather stations | Latest weather observations for VIC | Other Formats
Station Details ID: 085096 Name: WILSONS PROMONTORY LIGHTHOUSE Lat: -39.13 Lon: 146.42 Height: 95.0 m
Data from the previous 72 hours. | See also: Recent months at Wilsons Promontory
Date/Time
EST
Temp
°C
App
Temp
°C
Dew
Point
°C
Rel
Hum
%
Delta-T
°C
Wind Press
QNH
hPa
Press
MSL
hPa
Rain since
9am
mm
Dir  Spd
km/h
Gust
km/h
Spd
kts
Gust
kts
01/12:00pm 17.2 12.9 9.4 60 4.1 WNW 22 46 12 25 1011.3 1011.3 0.0
01/11:45am 16.6 11.1 9.1 61 3.9 WNW 28 52 15 28 1011.4 - 0.0
01/11:30am 16.4 13.0 9.1 62 3.8 NNW 17 52 9 28 1011.6 - 0.0
01/11:00am 15.6 11.5 8.6 63 3.6 NW 20 46 11 25 1012.0 - 0.0
01/10:38am 15.5 9.8 8.5 63 3.6 NW 28 46 15 25 1012.2 - 0.0
01/10:30am 15.5 11.6 8.5 63 3.6 N 19 32 10 17 1012.5 - 0.0
01/10:00am 15.4 12.9 8.4 63 3.6 NNE 11 24 6 13 1012.5 - 0.0
01/09:30am 15.3 12.8 8.1 62 3.6 N 11 43 6 23 1013.1 - 0.0
01/09:00am 15.3 11.6 7.8 61 3.8 NNE 17 32 9 17 1013.6 1013.6 0.0
01/08:30am 15.4 11.2 7.4 59 4.0 W 19 43 10 23 1013.7 - 0.0
01/08:00am 15.5 12.0 7.3 58 4.1 NNW 15 37 8 20 1014.0 - 0.0
01/07:30am 15.5 11.6 7.0 57 4.2 NW 17 37 9 20 1013.5 - 0.0
01/07:00am 15.1 12.4 7.4 60 3.8 NNE 11 22 6 12 1013.6 - 0.0
01/06:30am 15.2 12.8 7.2 59 4.0 N 9 30 5 16 1013.7 - 0.0
01/06:00am 15.2 12.5 7.2 59 4.0 SE 11 20 6 11 1013.7 1013.7 0.0
01/05:30am 15.0 12.3 7.3 60 3.8 NNE 11 26 6 14 1013.7 - 0.0
01/05:00am 14.8 11.8 7.6 62 3.6 NNE 13 20 7 11 1013.7 - 0.0
01/04:30am 14.8 11.7 7.4 61 3.7 N 13 20 7 11 1013.9 - 0.0
01/04:00am 14.7 11.2 7.3 61 3.7 N 15 26 8 14 1014.2 - 0.0
01/03:30am 14.5 12.1 7.1 61 3.6 N 9 22 5 12 1014.3 - 0.0
01/03:00am 14.5 11.7 7.1 61 3.6 NNE 11 19 6 10 1014.5 1014.5 0.0
01/02:30am 14.4 11.7 7.2 62 3.5 N 11 24 6 13 1015.0 - 0.0
01/02:00am 13.7 11.8 7.7 67 3.0 NNE 7 13 4 7 1015.4 - 0.0
01/01:30am 13.9 11.6 7.4 65 3.2 N 9 17 5 9 1015.9 - 0.0
01/01:00am 14.1 11.8 7.6 65 3.2 N 9 20 5 11 1016.5 - 0.0
01/12:30am 14.2 12.1 8.4 68 2.9 ENE 9 19 5 10 1016.7 - 0.0
01/12:00am 14.2 11.7 8.2 67 3.0 NNE 11 19 6 10 1016.9 1016.9 0.0
 
Date/Time
EST
Temp
°C
App
Temp
°C
Dew
Point
°C
Rel
Hum
%
Delta-T
°C
Wind Press
QNH
hPa
Press
MSL
hPa
Rain since
9am
mm
Dir  Spd
km/h
Gust
km/h
Spd
kts
Gust
kts
30/11:30pm 14.2 12.0 7.9 66 3.1 NNE 9 17 5 9 1017.2 - 0.0
30/11:00pm 14.3 12.3 8.5 68 2.9 NNE 9 19 5 10 1017.6 - 0.0
30/10:30pm 14.2 11.8 8.6 69 2.8 NNE 11 24 6 13 1017.8 - 0.0
30/10:00pm 13.9 12.0 9.1 73 2.4 NNE 9 15 5 8 1018.2 - 0.0
30/09:30pm 13.7 11.8 9.0 73 2.4 N 9 17 5 9 1018.3 - 0.0
30/09:00pm 13.9 11.1 8.7 71 2.6 WNW 13 22 7 12 1018.5 1018.4 0.0
30/08:30pm 13.8 11.4 8.6 71 2.6 WNW 11 22 6 12 1018.5 - 0.0
30/08:00pm 13.9 9.8 8.7 71 2.6 WNW 20 28 11 15 1018.7 - 0.0
30/07:30pm 13.9 12.0 9.1 73 2.4 W 9 19 5 10 1019.0 - 0.0
30/07:00pm 13.7 11.4 9.0 73 2.4 W 11 20 6 11 1019.0 - 0.0
30/06:30pm 13.6 10.5 8.9 73 2.4 WSW 15 22 8 12 1018.9 - 0.0
30/06:00pm 13.5 11.1 8.8 73 2.4 W 11 26 6 14 1018.8 1018.7 0.0
30/05:30pm 13.5 10.0 8.6 72 2.5 W 17 24 9 13 1018.6 - 0.0
30/05:00pm 13.6 10.5 8.7 72 2.5 W 15 28 8 15 1018.7 - 0.0
30/04:30pm 13.8 11.1 8.8 72 2.5 W 13 24 7 13 1018.7 - 0.0
30/04:00pm 14.2 10.4 9.2 72 2.6 W 19 30 10 16 1018.8 - 0.0
30/03:30pm 14.5 11.5 9.1 70 2.8 W 15 24 8 13 1018.9 - 0.0
30/03:00pm 14.8 11.4 9.2 69 2.9 W 17 30 9 16 1019.1 1019.0 0.0
30/02:30pm 14.9 12.2 8.8 67 3.1 W 13 22 7 12 1019.3 - 0.0
30/02:00pm 14.9 11.9 9.3 69 2.9 W 15 30 8 16 1019.5 - 0.0
30/01:30pm 15.1 11.5 8.3 64 3.4 W 17 32 9 17 1019.8 - 0.0
30/01:00pm 15.0 9.7 8.5 65 3.3 WNW 26 33 14 18 1020.1 - 0.0
30/12:30pm 15.6 11.2 9.1 65 3.4 W 22 33 12 18 1020.2 - 0.0
30/12:00pm 15.5 10.1 9.4 67 3.2 WNW 28 37 15 20 1020.5 1020.4 0.0
30/11:31am 15.0 9.6 9.4 69 2.9 WNW 28 48 15 26 1021.0 - 0.0
30/11:30am 15.1 10.1 9.5 69 2.9 WNW 26 48 14 26 1020.9 - 0.0
30/11:00am 15.2 9.8 9.6 69 2.9 NW 28 41 15 22 1021.4 - 0.0
30/10:30am 14.2 9.6 9.6 74 2.4 NW 24 35 13 19 1021.6 - 0.0
30/10:00am 13.8 10.1 10.0 78 2.0 WNW 20 37 11 20 1021.6 - 0.0
30/09:30am 13.4 9.1 10.6 83 1.5 NW 24 33 13 18 1021.9 - 0.0
30/09:00am 13.1 10.8 10.6 85 1.3 NW 13 22 7 12 1022.3 1022.2 1.4
30/08:30am 13.0 11.2 10.7 86 1.2 WNW 11 20 6 11 1022.3 - 1.4
30/08:00am 12.8 10.1 10.5 86 1.2 NNW 15 20 8 11 1022.0 - 1.4
30/07:30am 12.8 9.3 10.3 85 1.3 NW 19 24 10 13 1021.8 - 1.4
30/07:00am 13.1 10.8 10.6 85 1.3 NW 13 19 7 10 1021.6 - 1.4
30/06:30am 12.6 11.4 10.3 86 1.2 NNE 7 13 4 7 1021.7 - 1.4
30/06:00am 12.5 8.9 9.9 84 1.3 N 19 20 10 11 1021.6 1021.5 1.4
30/05:30am 13.1 10.5 9.5 79 1.8 NW 13 20 7 11 1021.6 - 1.4
30/05:00am 13.3 10.5 9.9 80 1.8 NW 15 20 8 11 1021.5 - 1.4
30/04:30am 13.2 11.0 10.9 86 1.2 WNW 13 19 7 10 1021.3 - 1.4
30/04:00am 13.3 10.9 11.5 89 1.0 WNW 15 24 8 13 1021.3 - 1.4
30/03:30am 13.3 12.1 11.7 90 0.9 WNW 9 15 5 8 1021.4 - 1.4
30/03:00am 12.9 11.2 11.3 90 0.8 WNW 11 15 6 8 1021.7 1021.6 1.4
30/02:30am 13.0 9.8 11.4 90 0.9 WSW 19 24 10 13 1021.9 - 1.4
30/02:00am 13.1 11.0 11.3 89 1.0 W 13 22 7 12 1022.0 - 1.2
30/01:30am 12.9 10.8 11.1 89 1.0 W 13 17 7 9 1022.0 - 1.2
30/01:00am 12.5 8.9 10.6 88 1.0 W 20 32 11 17 1022.1 - 1.2
30/12:00am 13.9 10.7 11.1 83 1.5 W 19 32 10 17 1022.1 1022.0 1.0
 
Date/Time
EST
Temp
°C
App
Temp
°C
Dew
Point
°C
Rel
Hum
%
Delta-T
°C
Wind Press
QNH
hPa
Press
MSL
hPa
Rain since
9am
mm
Dir  Spd
km/h
Gust
km/h
Spd
kts
Gust
kts
29/11:30pm 13.6 7.8 10.8 83 1.5 SW 32 41 17 22 1021.8 - 1.0
29/11:00pm 14.1 10.6 10.3 78 2.0 WSW 19 28 10 15 1021.9 - 1.0
29/10:30pm 13.7 6.5 10.7 82 1.6 SW 39 48 21 26 1021.7 - 1.0
29/10:22pm 14.2 8.8 11.0 81 1.7 SW 30 48 16 26 1021.5 - 1.0
29/10:00pm 14.2 9.1 10.6 79 1.9 SW 28 41 15 22 1021.7 - 1.0
29/09:30pm 14.0 10.0 10.6 80 1.8 W 22 35 12 19 1021.8 - 1.0
29/09:14pm 14.0 10.4 10.6 80 1.8 W 20 48 11 26 1021.9 - 1.0
29/09:00pm 14.2 6.2 10.6 79 1.9 WSW 43 52 23 28 1021.4 1021.3 1.0
29/08:45pm 14.0 7.4 11.2 83 1.5 SW 37 41 20 22 1021.5 - 1.0
29/08:30pm 13.4 7.4 10.8 84 1.4 W 33 44 18 24 1021.5 - 1.0
29/08:28pm 13.5 7.5 10.9 84 1.4 W 33 44 18 24 1021.5 - 1.0
29/08:00pm 14.1 4.0 10.5 79 1.9 WSW 54 63 29 34 1020.6 - 1.0
29/07:30pm 14.3 6.2 10.7 79 1.9 WSW 44 57 24 31 1020.8 - 1.0
29/07:02pm 14.4 8.3 10.6 78 2.0 W 33 52 18 28 1020.9 - 1.0
29/07:00pm 14.4 7.9 10.4 77 2.1 W 35 52 19 28 1020.9 - 1.0
29/06:40pm 14.2 6.9 10.2 77 2.1 W 39 63 21 34 1020.3 - 1.0
29/06:30pm 14.3 6.8 9.3 72 2.6 W 39 54 21 29 1020.7 - 1.0
29/06:07pm 14.5 8.1 9.5 72 2.6 W 33 52 18 28 1020.7 - 1.0
29/06:00pm 14.4 6.5 9.4 72 2.6 W 41 52 22 28 1020.4 1020.3 1.0
29/05:36pm 14.5 6.7 9.9 74 2.4 W 41 61 22 33 1019.5 - 1.0
29/05:30pm 14.6 7.3 10.2 75 2.3 W 39 54 21 29 1019.8 - 1.0
29/05:04pm 14.7 7.4 11.5 81 1.7 W 41 59 22 32 1019.4 - 1.0
29/05:00pm 14.5 7.6 11.5 82 1.6 W 39 50 21 27 1019.1 - 1.0
29/04:31pm 14.4 5.9 11.9 85 1.4 WSW 48 67 26 36 1019.2 - 1.0
29/04:30pm 14.3 5.4 11.8 85 1.4 WSW 50 67 27 36 1019.2 - 1.0
29/04:24pm 14.3 3.7 12.0 86 1.2 WSW 59 67 32 36 1018.7 - 1.0
29/04:00pm 14.4 9.2 12.8 90 0.9 W 32 54 17 29 1019.3 - 1.0
29/03:58pm 14.4 8.6 12.8 90 0.9 W 35 54 19 29 1019.4 - 1.0
29/03:30pm 13.9 6.5 12.3 90 0.9 W 43 56 23 30 1019.1 - 1.0
29/03:00pm 13.7 6.9 12.1 90 0.9 W 39 57 21 31 1018.9 1018.8 1.0
29/02:46pm 13.8 6.2 11.8 88 1.1 W 43 61 23 33 1018.6 - 0.6
29/02:30pm 14.2 5.7 11.9 86 1.2 W 48 59 26 32 1018.6 - 0.0
29/02:16pm 14.6 7.5 12.1 85 1.4 W 41 59 22 32 1018.7 - 0.0
29/02:00pm 14.4 6.7 11.6 83 1.5 W 43 56 23 30 1018.7 - 0.0
29/01:59pm 14.3 6.5 11.3 82 1.6 W 43 61 23 33 1018.7 - 0.0
29/01:30pm 14.8 6.8 11.0 78 2.0 W 44 57 24 31 1018.7 - 0.0
29/01:04pm 15.6 7.9 10.2 70 2.8 W 41 59 22 32 1018.8 - 0.0
29/01:00pm 15.6 8.2 9.9 69 3.0 W 39 56 21 30 1019.1 - 0.0
29/12:30pm 15.5 6.5 10.1 70 2.8 W 48 63 26 34 1019.1 - 0.0
29/12:00pm 15.6 6.8 9.7 68 3.1 W 46 65 25 35 1019.1 1019.0 0.0
29/11:36am 15.6 5.8 10.2 70 2.8 W 52 70 28 38 1018.8 - 0.0
29/11:30am 15.7 5.1 10.0 69 3.0 W 56 70 30 38 1018.7 - 0.0
29/11:00am 15.1 5.3 11.3 78 2.0 W 54 72 29 39 1018.6 - 0.0
29/10:30am 15.5 6.5 11.7 78 2.1 W 50 70 27 38 1018.2 - 0.0
29/10:23am 15.3 5.1 11.9 80 1.9 W 57 76 31 41 1018.0 - 0.0
29/10:17am 15.1 2.6 11.9 81 1.7 WSW 69 76 37 41 1017.8 - 0.0
29/10:05am 15.4 7.3 12.2 81 1.8 W 46 65 25 35 1018.4 - 0.0
29/10:00am 15.3 6.8 12.1 81 1.7 W 48 76 26 41 1018.4 - 0.0
29/09:56am 15.3 6.1 12.1 81 1.7 W 52 78 28 42 1018.2 - 0.0
29/09:47am 15.0 1.9 11.8 81 1.7 WSW 72 78 39 42 1017.9 - 0.0
29/09:30am 15.5 7.0 11.9 79 2.0 W 48 69 26 37 1017.9 - 0.0
29/09:24am 15.6 8.1 12.2 80 1.9 W 43 69 23 37 1018.3 - 0.0
29/09:22am 15.7 8.7 12.5 81 1.8 W 41 69 22 37 1018.3 - 0.0
29/09:10am 15.1 3.4 12.1 82 1.6 WSW 65 83 35 45 1017.8 - 0.0
29/09:03am 14.8 1.2 11.6 81 1.7 WSW 74 83 40 45 1017.5 - 0.0
29/09:01am 15.5 7.1 12.3 81 1.8 W 48 83 26 45 1017.8 - 0.0
29/09:00am 15.7 7.8 12.6 82 1.7 W 46 63 25 34 1018.0 1017.9 4.0
29/08:30am 15.0 6.0 12.9 87 1.2 W 52 72 28 39 1017.9 - 4.0
29/08:16am 15.0 5.6 12.7 86 1.3 W 54 74 29 40 1017.4 - 4.0
29/08:00am 14.9 5.9 12.8 87 1.2 W 52 67 28 36 1017.6 - 4.0
29/07:30am 15.0 6.0 12.7 86 1.3 W 52 72 28 39 1016.9 - 4.0
29/07:00am 15.0 6.4 12.9 87 1.2 W 50 69 27 37 1016.9 - 4.0
29/06:32am 14.8 5.5 13.0 89 1.0 W 54 72 29 39 1016.7 - 4.0
29/06:30am 15.0 5.4 13.2 89 1.0 W 56 72 30 39 1016.6 - 4.0
29/06:00am 14.4 6.5 12.8 90 0.9 W 46 65 25 35 1016.6 1016.5 4.0
29/05:30am 14.7 6.6 13.1 90 0.9 W 48 69 26 37 1016.8 - 3.6
29/05:00am 14.8 7.6 13.2 90 0.9 W 43 67 23 36 1016.7 - 3.6
29/04:31am 14.8 7.1 13.2 90 0.9 W 46 65 25 35 1016.6 - 3.6
29/04:30am 14.8 6.7 13.2 90 0.9 W 48 65 26 35 1016.6 - 3.6
29/04:00am 14.8 5.9 13.0 89 1.0 W 52 70 28 38 1016.6 - 3.4
29/03:30am 15.2 7.4 12.9 86 1.3 W 46 69 25 37 1016.1 - 3.2
29/03:02am 15.3 7.0 12.6 84 1.5 W 48 74 26 40 1016.4 - 3.0
29/03:00am 15.4 7.1 12.7 84 1.5 W 48 65 26 35 1016.6 1016.5 3.0
29/02:30am 15.4 7.6 12.9 85 1.4 W 46 72 25 39 1016.7 - 3.0
29/02:00am 15.3 7.5 13.0 86 1.3 W 46 67 25 36 1017.0 - 3.0
29/01:30am 15.0 7.2 13.0 88 1.1 W 46 76 25 41 1017.1 - 3.0
29/01:03am 14.9 6.4 13.3 90 0.9 W 50 69 27 37 1017.0 - 3.0
29/01:00am 14.9 6.4 13.3 90 0.9 W 50 67 27 36 1017.2 - 3.0
29/12:30am 14.9 5.2 12.9 88 1.1 W 56 80 30 43 1017.0 - 2.2
29/12:00am 15.1 6.1 12.8 86 1.3 W 52 80 28 43 1017.3 1017.2 2.0
 
Date/Time
EST
Temp
°C
App
Temp
°C
Dew
Point
°C
Rel
Hum
%
Delta-T
°C
Wind Press
QNH
hPa
Press
MSL
hPa
Rain since
9am
mm
Dir  Spd
km/h
Gust
km/h
Spd
kts
Gust
kts
28/11:30pm 15.4 6.7 12.5 83 1.6 W 50 78 27 42 1017.2 - 2.0
28/11:00pm 15.5 5.8 13.0 85 1.4 W 56 87 30 47 1017.2 - 1.8
28/10:30pm 15.3 7.1 13.0 86 1.3 W 48 72 26 39 1017.7 - 1.8
28/10:00pm 15.1 5.8 13.0 87 1.2 W 54 74 29 40 1017.9 - 1.8
28/09:30pm 15.2 6.7 13.2 88 1.1 W 50 70 27 38 1017.9 - 1.8
28/09:00pm 14.7 6.6 13.1 90 0.9 W 48 67 26 36 1018.2 1018.1 1.8
28/08:30pm 14.6 7.8 13.0 90 0.9 W 41 61 22 33 1018.2 - 1.6
28/08:00pm 15.0 6.4 13.0 88 1.1 W 50 76 27 41 1018.1 - 1.4
28/07:30pm 14.9 5.5 12.8 87 1.2 W 54 74 29 40 1018.1 - 1.0
28/07:00pm 15.4 7.6 13.1 86 1.3 W 46 69 25 37 1018.1 - 0.6
28/06:30pm 14.8 4.8 12.7 87 1.2 W 57 78 31 42 1018.0 - 0.6
28/06:00pm 15.1 6.2 13.0 87 1.2 W 52 74 28 40 1018.1 1018.0 0.6
28/05:30pm 15.3 6.7 12.8 85 1.4 W 50 72 27 39 1017.7 - 0.6
28/05:00pm 15.5 7.6 12.6 83 1.6 W 46 67 25 36 1017.8 - 0.6
28/04:30pm 15.5 6.7 12.3 81 1.8 W 50 72 27 39 1017.9 - 0.6
28/04:00pm 15.4 7.4 12.5 83 1.6 W 46 69 25 37 1018.1 - 0.6
28/03:31pm 14.9 6.2 12.6 86 1.3 W 50 69 27 37 1018.0 - 0.6
28/03:30pm 14.9 5.8 12.6 86 1.3 W 52 69 28 37 1018.0 - 0.6
28/03:00pm 15.2 6.9 12.7 85 1.4 W 48 69 26 37 1017.9 1017.8 0.6
28/02:30pm 15.1 7.7 13.0 87 1.2 W 44 70 24 38 1017.8 - 0.6
28/02:00pm 14.7 6.2 13.1 90 0.9 W 50 72 27 39 1017.8 - 0.6
28/01:30pm 15.1 6.3 13.3 89 1.0 W 52 72 28 39 1018.1 - 0.4
28/01:00pm 15.2 6.3 13.2 88 1.1 W 52 80 28 43 1018.3 - 0.2
28/12:30pm 15.2 5.9 13.2 88 1.1 W 54 74 29 40 1018.7 - 0.2

Other Formats:

Comma delimited format used in spreadsheet applications
http://www.bom.gov.au/fwo/IDV60801/IDV60801.94893.axf

JavaScript Object Notation format (JSON) in row-major order
http://www.bom.gov.au/fwo/IDV60801/IDV60801.94893.json